Arendahl, Minnesota
Current Conditions -  °F | °C
As of 3:35 AM on Saturday 25 Oct 2014 (Local Time) from KFKA Reporting Station
Clear Clear  
Wind Chill: 11°   Ceiling: Unl
Heat Index: 11°   Visibility: 10mi
Dew Point:   Wind: 10mph
Humidity: 79%   Direction: 310°NW
Pressure: 29.95"   Gusts: NA
Location:  43.7298°N, 91.8267°W
Report Text: KFKA 250835Z AUTO 31009KT 10SM CLR 11/07 A2995 RMK AO2 T01050070
Loading
Personal Weather Stations






























Interactive Weather Map
Tropical Storm Tracking
New forecast layout! Learn more

10-Day Weather Forecast

Advertisements
Track Severe Weather on mobile